sensor_id;sensor_type;location;lat;lon;timestamp;P1;durP1;ratioP1;P2;durP2;ratioP2
32808;SDS011;19159;48.178;16.386;2024-02-16T00:01:17;16.65;;;13.52;;
32808;SDS011;19159;48.178;16.386;2024-02-16T00:03:43;15.40;;;13.30;;
32808;SDS011;19159;48.178;16.386;2024-02-16T00:06:09;19.67;;;13.80;;
32808;SDS011;19159;48.178;16.386;2024-02-16T00:08:35;15.35;;;13.73;;
32808;SDS011;19159;48.178;16.386;2024-02-16T00:11:03;17.33;;;14.15;;
32808;SDS011;19159;48.178;16.386;2024-02-16T00:13:29;17.00;;;13.20;;
32808;SDS011;19159;48.178;16.386;2024-02-16T00:15:55;16.08;;;13.95;;
32808;SDS011;19159;48.178;16.386;2024-02-16T00:18:22;15.20;;;13.50;;
32808;SDS011;19159;48.178;16.386;2024-02-16T00:20:49;15.60;;;13.55;;
32808;SDS011;19159;48.178;16.386;2024-02-16T00:23:14;14.50;;;13.02;;
32808;SDS011;19159;48.178;16.386;2024-02-16T00:25:40;17.20;;;13.75;;
32808;SDS011;19159;48.178;16.386;2024-02-16T00:28:06;17.52;;;13.80;;
32808;SDS011;19159;48.178;16.386;2024-02-16T00:30:33;16.80;;;13.60;;
32808;SDS011;19159;48.178;16.386;2024-02-16T00:32:58;18.73;;;13.80;;
32808;SDS011;19159;48.178;16.386;2024-02-16T00:35:26;14.55;;;12.75;;
32808;SDS011;19159;48.178;16.386;2024-02-16T00:37:51;16.08;;;14.10;;
32808;SDS011;19159;48.178;16.386;2024-02-16T00:40:17;17.08;;;14.13;;
32808;SDS011;19159;48.178;16.386;2024-02-16T00:42:42;17.80;;;14.20;;
32808;SDS011;19159;48.178;16.386;2024-02-16T00:45:08;16.08;;;13.93;;
32808;SDS011;19159;48.178;16.386;2024-02-16T00:47:34;15.13;;;13.52;;
32808;SDS011;19159;48.178;16.386;2024-02-16T00:50:00;17.58;;;14.18;;
32808;SDS011;19159;48.178;16.386;2024-02-16T00:52:25;15.23;;;13.63;;
32808;SDS011;19159;48.178;16.386;2024-02-16T00:54:51;14.68;;;13.20;;
32808;SDS011;19159;48.178;16.386;2024-02-16T00:57:17;15.82;;;12.88;;
32808;SDS011;19159;48.178;16.386;2024-02-16T00:59:42;16.48;;;14.13;;
32808;SDS011;19159;48.178;16.386;2024-02-16T01:02:08;15.63;;;13.50;;
32808;SDS011;19159;48.178;16.386;2024-02-16T01:04:35;15.82;;;13.70;;
32808;SDS011;19159;48.178;16.386;2024-02-16T01:07:01;16.25;;;13.77;;
32808;SDS011;19159;48.178;16.386;2024-02-16T01:09:27;15.82;;;13.35;;
32808;SDS011;19159;48.178;16.386;2024-02-16T01:11:52;17.48;;;13.77;;
32808;SDS011;19159;48.178;16.386;2024-02-16T01:14:18;16.30;;;14.57;;
32808;SDS011;19159;48.178;16.386;2024-02-16T01:16:44;16.98;;;13.60;;
32808;SDS011;19159;48.178;16.386;2024-02-16T01:19:11;16.38;;;13.63;;
32808;SDS011;19159;48.178;16.386;2024-02-16T01:21:37;14.93;;;13.20;;
32808;SDS011;19159;48.178;16.386;2024-02-16T01:24:03;14.60;;;12.25;;
32808;SDS011;19159;48.178;16.386;2024-02-16T01:26:29;16.42;;;13.63;;
32808;SDS011;19159;48.178;16.386;2024-02-16T01:28:56;18.05;;;13.52;;
32808;SDS011;19159;48.178;16.386;2024-02-16T01:31:23;14.32;;;12.82;;
32808;SDS011;19159;48.178;16.386;2024-02-16T01:33:48;17.35;;;13.43;;
32808;SDS011;19159;48.178;16.386;2024-02-16T01:36:14;15.55;;;12.85;;
32808;SDS011;19159;48.178;16.386;2024-02-16T01:38:40;16.25;;;14.05;;
32808;SDS011;19159;48.178;16.386;2024-02-16T01:41:05;14.98;;;13.40;;
32808;SDS011;19159;48.178;16.386;2024-02-16T01:43:33;15.25;;;13.05;;
32808;SDS011;19159;48.178;16.386;2024-02-16T01:45:59;14.82;;;13.20;;
32808;SDS011;19159;48.178;16.386;2024-02-16T01:48:26;15.20;;;13.60;;
32808;SDS011;19159;48.178;16.386;2024-02-16T01:50:52;17.83;;;13.23;;
32808;SDS011;19159;48.178;16.386;2024-02-16T01:53:18;17.73;;;13.50;;
32808;SDS011;19159;48.178;16.386;2024-02-16T01:55:47;14.52;;;13.10;;
32808;SDS011;19159;48.178;16.386;2024-02-16T01:58:13;16.58;;;13.48;;
32808;SDS011;19159;48.178;16.386;2024-02-16T02:00:42;15.43;;;13.20;;
32808;SDS011;19159;48.178;16.386;2024-02-16T02:03:08;14.75;;;12.80;;
32808;SDS011;19159;48.178;16.386;2024-02-16T02:05:42;16.60;;;13.57;;
32808;SDS011;19159;48.178;16.386;2024-02-16T02:08:12;13.43;;;12.02;;
32808;SDS011;19159;48.178;16.386;2024-02-16T02:10:38;13.80;;;12.13;;
32808;SDS011;19159;48.178;16.386;2024-02-16T02:13:03;14.40;;;12.52;;
32808;SDS011;19159;48.178;16.386;2024-02-16T02:15:29;14.18;;;12.68;;
32808;SDS011;19159;48.178;16.386;2024-02-16T02:17:55;15.43;;;12.20;;
32808;SDS011;19159;48.178;16.386;2024-02-16T02:20:23;13.00;;;11.65;;
32808;SDS011;19159;48.178;16.386;2024-02-16T02:22:48;13.35;;;11.75;;
32808;SDS011;19159;48.178;16.386;2024-02-16T02:25:14;14.25;;;11.88;;
32808;SDS011;19159;48.178;16.386;2024-02-16T02:27:40;13.63;;;11.25;;
32808;SDS011;19159;48.178;16.386;2024-02-16T02:30:06;16.98;;;12.00;;
32808;SDS011;19159;48.178;16.386;2024-02-16T02:32:32;13.32;;;11.18;;
32808;SDS011;19159;48.178;16.386;2024-02-16T02:34:57;16.15;;;12.05;;
32808;SDS011;19159;48.178;16.386;2024-02-16T02:37:23;14.30;;;11.52;;
32808;SDS011;19159;48.178;16.386;2024-02-16T02:39:49;13.75;;;11.32;;
32808;SDS011;19159;48.178;16.386;2024-02-16T02:42:14;12.90;;;11.50;;
32808;SDS011;19159;48.178;16.386;2024-02-16T02:44:40;14.73;;;12.10;;
32808;SDS011;19159;48.178;16.386;2024-02-16T02:47:06;14.52;;;11.70;;
32808;SDS011;19159;48.178;16.386;2024-02-16T02:49:31;14.30;;;11.68;;
32808;SDS011;19159;48.178;16.386;2024-02-16T02:51:59;13.48;;;11.48;;
32808;SDS011;19159;48.178;16.386;2024-02-16T02:54:25;14.20;;;11.32;;
32808;SDS011;19159;48.178;16.386;2024-02-16T02:56:51;13.45;;;11.25;;
32808;SDS011;19159;48.178;16.386;2024-02-16T02:59:17;13.85;;;10.95;;
32808;SDS011;19159;48.178;16.386;2024-02-16T03:01:42;14.13;;;11.98;;
32808;SDS011;19159;48.178;16.386;2024-02-16T03:04:08;14.07;;;11.18;;
32808;SDS011;19159;48.178;16.386;2024-02-16T03:06:34;14.55;;;11.27;;
32808;SDS011;19159;48.178;16.386;2024-02-16T03:09:00;13.82;;;12.07;;
32808;SDS011;19159;48.178;16.386;2024-02-16T03:11:25;14.25;;;11.82;;
32808;SDS011;19159;48.178;16.386;2024-02-16T03:13:51;15.93;;;11.50;;
32808;SDS011;19159;48.178;16.386;2024-02-16T03:16:17;15.10;;;11.90;;
32808;SDS011;19159;48.178;16.386;2024-02-16T03:18:42;15.25;;;12.82;;
32808;SDS011;19159;48.178;16.386;2024-02-16T03:21:12;13.13;;;11.73;;
32808;SDS011;19159;48.178;16.386;2024-02-16T03:23:41;14.95;;;11.70;;
32808;SDS011;19159;48.178;16.386;2024-02-16T03:26:13;14.65;;;11.70;;
32808;SDS011;19159;48.178;16.386;2024-02-16T03:28:43;13.35;;;11.95;;
32808;SDS011;19159;48.178;16.386;2024-02-16T03:31:19;14.68;;;12.45;;
32808;SDS011;19159;48.178;16.386;2024-02-16T03:33:46;14.30;;;12.75;;
32808;SDS011;19159;48.178;16.386;2024-02-16T03:36:12;15.82;;;12.27;;
32808;SDS011;19159;48.178;16.386;2024-02-16T03:38:46;14.05;;;12.27;;
32808;SDS011;19159;48.178;16.386;2024-02-16T03:41:15;16.23;;;12.40;;
32808;SDS011;19159;48.178;16.386;2024-02-16T03:43:44;15.52;;;12.88;;
32808;SDS011;19159;48.178;16.386;2024-02-16T03:46:09;16.15;;;12.13;;
32808;SDS011;19159;48.178;16.386;2024-02-16T03:48:35;15.05;;;12.57;;
32808;SDS011;19159;48.178;16.386;2024-02-16T03:51:01;17.55;;;12.73;;
32808;SDS011;19159;48.178;16.386;2024-02-16T03:53:28;14.57;;;12.98;;
32808;SDS011;19159;48.178;16.386;2024-02-16T03:55:53;14.05;;;12.15;;
32808;SDS011;19159;48.178;16.386;2024-02-16T03:58:19;15.55;;;12.63;;
32808;SDS011;19159;48.178;16.386;2024-02-16T04:00:45;15.45;;;13.27;;
32808;SDS011;19159;48.178;16.386;2024-02-16T04:03:11;14.35;;;12.23;;
32808;SDS011;19159;48.178;16.386;2024-02-16T04:05:39;15.35;;;11.98;;
32808;SDS011;19159;48.178;16.386;2024-02-16T04:08:06;15.02;;;12.00;;
32808;SDS011;19159;48.178;16.386;2024-02-16T04:10:32;15.07;;;12.75;;
32808;SDS011;19159;48.178;16.386;2024-02-16T04:12:59;16.98;;;13.38;;
32808;SDS011;19159;48.178;16.386;2024-02-16T04:15:25;20.77;;;13.27;;
32808;SDS011;19159;48.178;16.386;2024-02-16T04:17:51;14.65;;;12.30;;
32808;SDS011;19159;48.178;16.386;2024-02-16T04:20:17;14.65;;;13.07;;
32808;SDS011;19159;48.178;16.386;2024-02-16T04:22:43;14.20;;;12.25;;
32808;SDS011;19159;48.178;16.386;2024-02-16T04:25:09;13.80;;;11.65;;
32808;SDS011;19159;48.178;16.386;2024-02-16T04:27:35;13.13;;;11.73;;
32808;SDS011;19159;48.178;16.386;2024-02-16T04:30:02;14.77;;;11.90;;
32808;SDS011;19159;48.178;16.386;2024-02-16T04:32:28;13.48;;;11.82;;
32808;SDS011;19159;48.178;16.386;2024-02-16T04:34:54;13.85;;;11.63;;
32808;SDS011;19159;48.178;16.386;2024-02-16T04:37:22;13.15;;;11.70;;
32808;SDS011;19159;48.178;16.386;2024-02-16T04:39:49;14.75;;;11.20;;
32808;SDS011;19159;48.178;16.386;2024-02-16T04:42:15;13.68;;;11.80;;
32808;SDS011;19159;48.178;16.386;2024-02-16T04:44:41;13.70;;;11.57;;
32808;SDS011;19159;48.178;16.386;2024-02-16T04:47:07;14.25;;;11.98;;
32808;SDS011;19159;48.178;16.386;2024-02-16T04:49:33;18.85;;;12.15;;
32808;SDS011;19159;48.178;16.386;2024-02-16T04:51:58;15.07;;;11.90;;
32808;SDS011;19159;48.178;16.386;2024-02-16T04:54:24;12.93;;;11.18;;
32808;SDS011;19159;48.178;16.386;2024-02-16T04:56:50;13.43;;;10.90;;
32808;SDS011;19159;48.178;16.386;2024-02-16T04:59:16;14.90;;;12.18;;
32808;SDS011;19159;48.178;16.386;2024-02-16T05:01:43;13.23;;;10.80;;
32808;SDS011;19159;48.178;16.386;2024-02-16T05:04:10;13.07;;;11.32;;
32808;SDS011;19159;48.178;16.386;2024-02-16T05:06:40;14.73;;;12.35;;
32808;SDS011;19159;48.178;16.386;2024-02-16T05:09:11;14.52;;;10.55;;
32808;SDS011;19159;48.178;16.386;2024-02-16T05:11:37;11.90;;;9.90;;
32808;SDS011;19159;48.178;16.386;2024-02-16T05:14:02;12.45;;;10.95;;
32808;SDS011;19159;48.178;16.386;2024-02-16T05:16:28;14.90;;;10.20;;
32808;SDS011;19159;48.178;16.386;2024-02-16T05:18:57;14.95;;;10.88;;
32808;SDS011;19159;48.178;16.386;2024-02-16T05:21:22;13.05;;;11.18;;
32808;SDS011;19159;48.178;16.386;2024-02-16T05:23:48;11.60;;;10.25;;
32808;SDS011;19159;48.178;16.386;2024-02-16T05:26:14;11.27;;;9.95;;
32808;SDS011;19159;48.178;16.386;2024-02-16T05:28:39;12.48;;;10.85;;
32808;SDS011;19159;48.178;16.386;2024-02-16T05:31:15;14.07;;;10.93;;
32808;SDS011;19159;48.178;16.386;2024-02-16T05:33:49;11.90;;;10.32;;
32808;SDS011;19159;48.178;16.386;2024-02-16T05:36:19;13.20;;;10.45;;
32808;SDS011;19159;48.178;16.386;2024-02-16T05:38:46;12.73;;;10.60;;
32808;SDS011;19159;48.178;16.386;2024-02-16T05:41:12;11.43;;;9.85;;
32808;SDS011;19159;48.178;16.386;2024-02-16T05:43:38;12.88;;;10.32;;
32808;SDS011;19159;48.178;16.386;2024-02-16T05:46:07;12.80;;;10.82;;
32808;SDS011;19159;48.178;16.386;2024-02-16T05:48:41;16.10;;;12.50;;
32808;SDS011;19159;48.178;16.386;2024-02-16T05:51:07;12.85;;;11.02;;
32808;SDS011;19159;48.178;16.386;2024-02-16T05:53:33;13.73;;;11.30;;
32808;SDS011;19159;48.178;16.386;2024-02-16T05:56:00;14.80;;;10.77;;
32808;SDS011;19159;48.178;16.386;2024-02-16T05:58:26;12.00;;;10.60;;
32808;SDS011;19159;48.178;16.386;2024-02-16T06:00:52;16.73;;;10.38;;
32808;SDS011;19159;48.178;16.386;2024-02-16T06:03:19;16.00;;;11.02;;
32808;SDS011;19159;48.178;16.386;2024-02-16T06:05:45;12.50;;;10.18;;
32808;SDS011;19159;48.178;16.386;2024-02-16T06:08:11;13.13;;;11.18;;
32808;SDS011;19159;48.178;16.386;2024-02-16T06:10:37;12.18;;;10.05;;
32808;SDS011;19159;48.178;16.386;2024-02-16T06:13:03;12.05;;;10.40;;
32808;SDS011;19159;48.178;16.386;2024-02-16T06:15:29;11.60;;;10.15;;
32808;SDS011;19159;48.178;16.386;2024-02-16T06:17:55;11.13;;;9.90;;
32808;SDS011;19159;48.178;16.386;2024-02-16T06:20:21;10.75;;;9.65;;
32808;SDS011;19159;48.178;16.386;2024-02-16T06:22:46;13.50;;;11.10;;
32808;SDS011;19159;48.178;16.386;2024-02-16T06:25:13;15.40;;;11.00;;
32808;SDS011;19159;48.178;16.386;2024-02-16T06:27:40;13.30;;;11.10;;
32808;SDS011;19159;48.178;16.386;2024-02-16T06:30:06;13.10;;;10.00;;
32808;SDS011;19159;48.178;16.386;2024-02-16T06:32:37;12.43;;;10.45;;
32808;SDS011;19159;48.178;16.386;2024-02-16T06:35:03;14.18;;;10.20;;
32808;SDS011;19159;48.178;16.386;2024-02-16T06:37:29;12.35;;;10.15;;
32808;SDS011;19159;48.178;16.386;2024-02-16T06:39:54;13.60;;;9.95;;
32808;SDS011;19159;48.178;16.386;2024-02-16T06:42:20;14.40;;;9.75;;
32808;SDS011;19159;48.178;16.386;2024-02-16T06:44:46;12.35;;;10.80;;
32808;SDS011;19159;48.178;16.386;2024-02-16T06:47:12;12.48;;;10.15;;
32808;SDS011;19159;48.178;16.386;2024-02-16T06:49:37;11.55;;;9.18;;
32808;SDS011;19159;48.178;16.386;2024-02-16T06:52:03;13.10;;;9.90;;
32808;SDS011;19159;48.178;16.386;2024-02-16T06:54:29;14.18;;;10.43;;
32808;SDS011;19159;48.178;16.386;2024-02-16T06:56:55;16.92;;;10.07;;
32808;SDS011;19159;48.178;16.386;2024-02-16T06:59:20;11.13;;;9.35;;
32808;SDS011;19159;48.178;16.386;2024-02-16T07:01:46;13.77;;;10.23;;
32808;SDS011;19159;48.178;16.386;2024-02-16T07:04:12;14.80;;;9.98;;
32808;SDS011;19159;48.178;16.386;2024-02-16T07:06:37;13.43;;;8.65;;
32808;SDS011;19159;48.178;16.386;2024-02-16T07:09:03;14.20;;;9.95;;
32808;SDS011;19159;48.178;16.386;2024-02-16T07:11:29;12.77;;;10.57;;
32808;SDS011;19159;48.178;16.386;2024-02-16T07:13:54;12.45;;;9.52;;
32808;SDS011;19159;48.178;16.386;2024-02-16T07:16:21;12.35;;;9.93;;
32808;SDS011;19159;48.178;16.386;2024-02-16T07:18:46;13.05;;;9.27;;
32808;SDS011;19159;48.178;16.386;2024-02-16T07:21:12;11.32;;;9.10;;
32808;SDS011;19159;48.178;16.386;2024-02-16T07:23:38;11.05;;;9.85;;
32808;SDS011;19159;48.178;16.386;2024-02-16T07:26:03;12.40;;;9.35;;
32808;SDS011;19159;48.178;16.386;2024-02-16T07:28:29;11.57;;;9.13;;
32808;SDS011;19159;48.178;16.386;2024-02-16T07:30:56;10.15;;;8.00;;
32808;SDS011;19159;48.178;16.386;2024-02-16T07:33:22;13.13;;;8.80;;
32808;SDS011;19159;48.178;16.386;2024-02-16T07:35:49;11.57;;;8.45;;
32808;SDS011;19159;48.178;16.386;2024-02-16T07:38:16;11.32;;;7.82;;
32808;SDS011;19159;48.178;16.386;2024-02-16T07:40:42;9.75;;;7.85;;
32808;SDS011;19159;48.178;16.386;2024-02-16T07:43:10;11.35;;;8.15;;
32808;SDS011;19159;48.178;16.386;2024-02-16T07:45:36;8.95;;;6.93;;
32808;SDS011;19159;48.178;16.386;2024-02-16T07:48:02;7.95;;;6.82;;
32808;SDS011;19159;48.178;16.386;2024-02-16T07:50:30;11.05;;;7.32;;
32808;SDS011;19159;48.178;16.386;2024-02-16T07:52:55;10.30;;;6.65;;
32808;SDS011;19159;48.178;16.386;2024-02-16T07:55:21;9.75;;;6.93;;
32808;SDS011;19159;48.178;16.386;2024-02-16T07:57:49;8.30;;;6.85;;
32808;SDS011;19159;48.178;16.386;2024-02-16T08:00:15;7.75;;;6.40;;
32808;SDS011;19159;48.178;16.386;2024-02-16T08:02:41;8.27;;;6.32;;
32808;SDS011;19159;48.178;16.386;2024-02-16T08:05:08;10.55;;;6.78;;
32808;SDS011;19159;48.178;16.386;2024-02-16T08:07:37;10.57;;;6.10;;
32808;SDS011;19159;48.178;16.386;2024-02-16T08:10:03;12.10;;;6.82;;
32808;SDS011;19159;48.178;16.386;2024-02-16T08:12:29;7.60;;;6.00;;
32808;SDS011;19159;48.178;16.386;2024-02-16T08:14:56;14.60;;;6.10;;
32808;SDS011;19159;48.178;16.386;2024-02-16T08:17:24;8.65;;;5.93;;
32808;SDS011;19159;48.178;16.386;2024-02-16T08:19:53;10.70;;;6.60;;
32808;SDS011;19159;48.178;16.386;2024-02-16T08:22:19;7.18;;;5.55;;
32808;SDS011;19159;48.178;16.386;2024-02-16T08:24:45;6.53;;;5.82;;
32808;SDS011;19159;48.178;16.386;2024-02-16T08:27:11;9.60;;;6.45;;
32808;SDS011;19159;48.178;16.386;2024-02-16T08:29:38;8.52;;;5.22;;
32808;SDS011;19159;48.178;16.386;2024-02-16T08:32:03;6.97;;;5.53;;
32808;SDS011;19159;48.178;16.386;2024-02-16T08:34:30;8.05;;;5.32;;
32808;SDS011;19159;48.178;16.386;2024-02-16T08:36:56;6.45;;;4.90;;
32808;SDS011;19159;48.178;16.386;2024-02-16T08:39:22;6.88;;;5.00;;
32808;SDS011;19159;48.178;16.386;2024-02-16T08:41:51;5.32;;;3.90;;
32808;SDS011;19159;48.178;16.386;2024-02-16T08:44:17;6.78;;;3.60;;
32808;SDS011;19159;48.178;16.386;2024-02-16T08:46:44;8.38;;;3.65;;
32808;SDS011;19159;48.178;16.386;2024-02-16T08:49:11;5.82;;;3.13;;
32808;SDS011;19159;48.178;16.386;2024-02-16T08:51:37;6.63;;;3.35;;
32808;SDS011;19159;48.178;16.386;2024-02-16T08:54:03;4.03;;;2.70;;
32808;SDS011;19159;48.178;16.386;2024-02-16T08:56:29;7.30;;;4.75;;
32808;SDS011;19159;48.178;16.386;2024-02-16T08:58:55;3.97;;;3.20;;
32808;SDS011;19159;48.178;16.386;2024-02-16T09:01:34;4.72;;;2.90;;
32808;SDS011;19159;48.178;16.386;2024-02-16T09:04:02;5.20;;;3.45;;
32808;SDS011;19159;48.178;16.386;2024-02-16T09:06:28;7.97;;;3.00;;
32808;SDS011;19159;48.178;16.386;2024-02-16T09:08:54;4.60;;;3.35;;
32808;SDS011;19159;48.178;16.386;2024-02-16T09:11:21;4.75;;;3.78;;
32808;SDS011;19159;48.178;16.386;2024-02-16T09:13:48;4.78;;;3.80;;
32808;SDS011;19159;48.178;16.386;2024-02-16T09:16:14;5.70;;;3.90;;
32808;SDS011;19159;48.178;16.386;2024-02-16T09:18:40;5.80;;;3.92;;
32808;SDS011;19159;48.178;16.386;2024-02-16T09:21:06;6.38;;;3.53;;
32808;SDS011;19159;48.178;16.386;2024-02-16T09:23:32;5.43;;;4.07;;
32808;SDS011;19159;48.178;16.386;2024-02-16T09:25:59;5.88;;;3.83;;
32808;SDS011;19159;48.178;16.386;2024-02-16T09:28:25;4.13;;;3.05;;
32808;SDS011;19159;48.178;16.386;2024-02-16T09:30:51;6.75;;;3.92;;
32808;SDS011;19159;48.178;16.386;2024-02-16T09:33:17;6.13;;;4.07;;
32808;SDS011;19159;48.178;16.386;2024-02-16T09:35:42;6.22;;;3.55;;
32808;SDS011;19159;48.178;16.386;2024-02-16T09:38:08;7.30;;;3.38;;
32808;SDS011;19159;48.178;16.386;2024-02-16T09:40:35;3.40;;;2.70;;
32808;SDS011;19159;48.178;16.386;2024-02-16T09:43:01;7.03;;;3.25;;
32808;SDS011;19159;48.178;16.386;2024-02-16T09:45:28;3.53;;;2.35;;
32808;SDS011;19159;48.178;16.386;2024-02-16T09:47:54;6.68;;;2.10;;
32808;SDS011;19159;48.178;16.386;2024-02-16T09:50:20;6.93;;;2.17;;
32808;SDS011;19159;48.178;16.386;2024-02-16T09:52:47;5.53;;;2.50;;
32808;SDS011;19159;48.178;16.386;2024-02-16T09:55:13;3.03;;;2.00;;
32808;SDS011;19159;48.178;16.386;2024-02-16T09:57:40;4.03;;;2.00;;
32808;SDS011;19159;48.178;16.386;2024-02-16T10:00:06;3.55;;;2.20;;
32808;SDS011;19159;48.178;16.386;2024-02-16T10:02:40;5.68;;;1.90;;
32808;SDS011;19159;48.178;16.386;2024-02-16T10:05:13;2.88;;;1.88;;
32808;SDS011;19159;48.178;16.386;2024-02-16T10:07:44;5.35;;;2.47;;
32808;SDS011;19159;48.178;16.386;2024-02-16T10:13:05;3.70;;;2.13;;
32808;SDS011;19159;48.178;16.386;2024-02-16T10:15:33;3.45;;;2.00;;
32808;SDS011;19159;48.178;16.386;2024-02-16T10:20:28;3.60;;;1.90;;
32808;SDS011;19159;48.178;16.386;2024-02-16T10:23:10;3.22;;;1.90;;
32808;SDS011;19159;48.178;16.386;2024-02-16T10:25:38;3.22;;;1.98;;
32808;SDS011;19159;48.178;16.386;2024-02-16T10:28:09;2.65;;;1.88;;
32808;SDS011;19159;48.178;16.386;2024-02-16T10:30:39;2.72;;;1.90;;
32808;SDS011;19159;48.178;16.386;2024-02-16T10:33:07;4.38;;;1.80;;
32808;SDS011;19159;48.178;16.386;2024-02-16T10:35:34;3.78;;;1.95;;
32808;SDS011;19159;48.178;16.386;2024-02-16T10:38:06;2.90;;;2.10;;
32808;SDS011;19159;48.178;16.386;2024-02-16T10:40:41;4.38;;;1.85;;
32808;SDS011;19159;48.178;16.386;2024-02-16T10:43:08;5.18;;;1.55;;
32808;SDS011;19159;48.178;16.386;2024-02-16T10:45:35;6.05;;;1.52;;
32808;SDS011;19159;48.178;16.386;2024-02-16T10:48:03;2.75;;;1.73;;
32808;SDS011;19159;48.178;16.386;2024-02-16T10:50:30;5.50;;;1.90;;
32808;SDS011;19159;48.178;16.386;2024-02-16T10:53:00;7.53;;;1.80;;
32808;SDS011;19159;48.178;16.386;2024-02-16T10:55:41;3.72;;;1.88;;
32808;SDS011;19159;48.178;16.386;2024-02-16T10:58:09;2.40;;;1.73;;
32808;SDS011;19159;48.178;16.386;2024-02-16T11:00:51;5.15;;;1.85;;
32808;SDS011;19159;48.178;16.386;2024-02-16T11:03:17;7.95;;;1.70;;
32808;SDS011;19159;48.178;16.386;2024-02-16T11:05:50;4.15;;;1.90;;
32808;SDS011;19159;48.178;16.386;2024-02-16T11:08:20;2.60;;;1.67;;
32808;SDS011;19159;48.178;16.386;2024-02-16T11:10:58;2.42;;;1.58;;
32808;SDS011;19159;48.178;16.386;2024-02-16T11:13:34;3.97;;;2.00;;
32808;SDS011;19159;48.178;16.386;2024-02-16T11:18:28;2.83;;;2.03;;
32808;SDS011;19159;48.178;16.386;2024-02-16T11:20:55;2.00;;;1.80;;
32808;SDS011;19159;48.178;16.386;2024-02-16T11:23:26;3.88;;;1.85;;
32808;SDS011;19159;48.178;16.386;2024-02-16T11:25:54;3.65;;;1.52;;
32808;SDS011;19159;48.178;16.386;2024-02-16T11:28:25;5.40;;;1.92;;
32808;SDS011;19159;48.178;16.386;2024-02-16T11:30:52;6.15;;;1.98;;
32808;SDS011;19159;48.178;16.386;2024-02-16T11:33:17;2.72;;;1.90;;
32808;SDS011;19159;48.178;16.386;2024-02-16T11:35:52;20.80;;;18.95;;
32808;SDS011;19159;48.178;16.386;2024-02-16T11:38:25;21.88;;;20.50;;
32808;SDS011;19159;48.178;16.386;2024-02-16T11:43:20;3.13;;;2.80;;
32808;SDS011;19159;48.178;16.386;2024-02-16T11:45:47;2.20;;;1.80;;
32808;SDS011;19159;48.178;16.386;2024-02-16T11:48:18;3.47;;;2.05;;
32808;SDS011;19159;48.178;16.386;2024-02-16T11:50:48;13.50;;;12.63;;
32808;SDS011;19159;48.178;16.386;2024-02-16T11:53:16;3.75;;;2.10;;
32808;SDS011;19159;48.178;16.386;2024-02-16T11:55:47;2.70;;;2.40;;
32808;SDS011;19159;48.178;16.386;2024-02-16T11:58:16;3.22;;;2.97;;
32808;SDS011;19159;48.178;16.386;2024-02-16T12:00:48;5.75;;;2.97;;
32808;SDS011;19159;48.178;16.386;2024-02-16T12:03:25;3.13;;;2.83;;
32808;SDS011;19159;48.178;16.386;2024-02-16T12:05:56;3.20;;;2.90;;
32808;SDS011;19159;48.178;16.386;2024-02-16T12:08:23;2.67;;;2.47;;
32808;SDS011;19159;48.178;16.386;2024-02-16T12:10:56;2.60;;;2.33;;
32808;SDS011;19159;48.178;16.386;2024-02-16T12:13:22;2.20;;;2.00;;
32808;SDS011;19159;48.178;16.386;2024-02-16T12:15:49;2.65;;;1.98;;
32808;SDS011;19159;48.178;16.386;2024-02-16T12:18:26;2.78;;;2.30;;
32808;SDS011;19159;48.178;16.386;2024-02-16T12:23:23;3.80;;;2.53;;
32808;SDS011;19159;48.178;16.386;2024-02-16T12:25:49;13.20;;;12.32;;
32808;SDS011;19159;48.178;16.386;2024-02-16T12:28:14;13.85;;;13.05;;
32808;SDS011;19159;48.178;16.386;2024-02-16T12:30:40;1.65;;;1.10;;
32808;SDS011;19159;48.178;16.386;2024-02-16T12:33:06;1.48;;;1.17;;
32808;SDS011;19159;48.178;16.386;2024-02-16T12:35:31;3.35;;;1.30;;
32808;SDS011;19159;48.178;16.386;2024-02-16T12:37:57;2.28;;;1.38;;
32808;SDS011;19159;48.178;16.386;2024-02-16T12:40:23;3.30;;;1.42;;
32808;SDS011;19159;48.178;16.386;2024-02-16T12:42:48;2.40;;;1.40;;
32808;SDS011;19159;48.178;16.386;2024-02-16T12:45:14;5.05;;;1.70;;
32808;SDS011;19159;48.178;16.386;2024-02-16T12:47:41;2.72;;;1.30;;
32808;SDS011;19159;48.178;16.386;2024-02-16T12:50:07;2.28;;;1.50;;
32808;SDS011;19159;48.178;16.386;2024-02-16T12:52:32;3.15;;;1.20;;
32808;SDS011;19159;48.178;16.386;2024-02-16T12:55:00;2.22;;;1.40;;
32808;SDS011;19159;48.178;16.386;2024-02-16T12:57:25;2.22;;;1.65;;
32808;SDS011;19159;48.178;16.386;2024-02-16T12:59:53;2.03;;;1.30;;
32808;SDS011;19159;48.178;16.386;2024-02-16T13:02:19;2.45;;;1.25;;
32808;SDS011;19159;48.178;16.386;2024-02-16T13:04:45;4.68;;;1.70;;
32808;SDS011;19159;48.178;16.386;2024-02-16T13:07:10;2.33;;;1.58;;
32808;SDS011;19159;48.178;16.386;2024-02-16T13:09:36;2.83;;;1.70;;
32808;SDS011;19159;48.178;16.386;2024-02-16T13:12:02;3.75;;;1.90;;
32808;SDS011;19159;48.178;16.386;2024-02-16T13:14:28;3.78;;;1.80;;
32808;SDS011;19159;48.178;16.386;2024-02-16T13:16:53;2.47;;;1.70;;
32808;SDS011;19159;48.178;16.386;2024-02-16T13:19:19;3.53;;;2.00;;
32808;SDS011;19159;48.178;16.386;2024-02-16T13:21:45;3.15;;;2.13;;
32808;SDS011;19159;48.178;16.386;2024-02-16T13:24:10;4.85;;;1.92;;
32808;SDS011;19159;48.178;16.386;2024-02-16T13:26:36;4.57;;;2.10;;
32808;SDS011;19159;48.178;16.386;2024-02-16T13:29:01;3.17;;;2.05;;
32808;SDS011;19159;48.178;16.386;2024-02-16T13:31:28;2.53;;;1.98;;
32808;SDS011;19159;48.178;16.386;2024-02-16T13:33:54;2.97;;;2.00;;
32808;SDS011;19159;48.178;16.386;2024-02-16T13:36:20;11.82;;;2.40;;
32808;SDS011;19159;48.178;16.386;2024-02-16T13:38:46;4.45;;;2.50;;
32808;SDS011;19159;48.178;16.386;2024-02-16T13:41:11;2.10;;;1.70;;
32808;SDS011;19159;48.178;16.386;2024-02-16T13:43:37;2.97;;;1.95;;
32808;SDS011;19159;48.178;16.386;2024-02-16T13:46:03;3.08;;;1.67;;
32808;SDS011;19159;48.178;16.386;2024-02-16T13:48:29;3.78;;;1.70;;
32808;SDS011;19159;48.178;16.386;2024-02-16T13:50:55;5.07;;;2.30;;
32808;SDS011;19159;48.178;16.386;2024-02-16T13:53:21;4.78;;;2.20;;
32808;SDS011;19159;48.178;16.386;2024-02-16T13:55:48;3.17;;;1.80;;
32808;SDS011;19159;48.178;16.386;2024-02-16T13:58:14;4.82;;;1.73;;
32808;SDS011;19159;48.178;16.386;2024-02-16T14:00:39;4.18;;;1.90;;
32808;SDS011;19159;48.178;16.386;2024-02-16T14:03:09;4.85;;;2.00;;
32808;SDS011;19159;48.178;16.386;2024-02-16T14:05:39;2.42;;;1.67;;
32808;SDS011;19159;48.178;16.386;2024-02-16T14:08:06;2.75;;;1.70;;
32808;SDS011;19159;48.178;16.386;2024-02-16T14:10:34;3.97;;;1.90;;
32808;SDS011;19159;48.178;16.386;2024-02-16T14:13:00;2.28;;;1.80;;
32808;SDS011;19159;48.178;16.386;2024-02-16T14:15:26;4.10;;;1.83;;
32808;SDS011;19159;48.178;16.386;2024-02-16T14:17:51;3.45;;;1.65;;
32808;SDS011;19159;48.178;16.386;2024-02-16T14:20:17;3.30;;;1.80;;
32808;SDS011;19159;48.178;16.386;2024-02-16T14:22:43;2.05;;;1.40;;
32808;SDS011;19159;48.178;16.386;2024-02-16T14:25:10;4.22;;;1.80;;
32808;SDS011;19159;48.178;16.386;2024-02-16T14:27:38;2.88;;;1.70;;
32808;SDS011;19159;48.178;16.386;2024-02-16T14:30:04;3.40;;;1.70;;
32808;SDS011;19159;48.178;16.386;2024-02-16T14:32:31;4.57;;;1.58;;